createdAt,value
2022-09-12T00:00:46.306Z,99841.64
2022-09-12T00:03:17.830Z,99839.56
2022-09-12T00:05:50.123Z,99838.74
2022-09-12T00:08:21.610Z,99838.64
2022-09-12T00:10:53.489Z,99835.41
2022-09-12T00:13:25.862Z,99833.30
2022-09-12T00:15:57.247Z,99830.91
2022-09-12T00:18:30.379Z,99827.96
2022-09-12T00:21:06.242Z,99832.02
2022-09-12T00:23:37.822Z,99836.27
2022-09-12T00:26:10.241Z,99832.09
2022-09-12T00:28:43.332Z,99831.74
2022-09-12T00:31:18.195Z,99830.63
2022-09-12T00:33:49.844Z,99829.37
2022-09-12T00:36:24.030Z,99827.85
2022-09-12T00:38:56.128Z,99829.95
2022-09-12T00:41:30.407Z,99829.15
2022-09-12T00:44:03.998Z,99828.14
2022-09-12T00:46:41.836Z,99824.02
2022-09-12T00:49:17.315Z,99826.47
2022-09-12T00:51:52.576Z,99830.69
2022-09-12T00:54:28.318Z,99835.19
2022-09-12T00:57:03.504Z,99835.33
2022-09-12T00:59:40.948Z,99834.17
2022-09-12T01:02:12.711Z,99834.71
2022-09-12T01:04:45.872Z,99838.09
2022-09-12T01:07:17.509Z,99837.66
2022-09-12T01:09:49.592Z,99842.02
2022-09-12T01:12:21.058Z,99842.91
2022-09-12T01:14:52.703Z,99843.23
2022-09-12T01:17:26.856Z,99842.30
2022-09-12T01:20:28.801Z,99841.27
2022-09-12T01:23:37.388Z,99834.27
2022-09-12T01:26:25.188Z,99835.35
2022-09-12T01:29:14.767Z,99839.94
2022-09-12T01:31:53.089Z,99836.93
2022-09-12T01:34:30.601Z,99839.40
2022-09-12T01:37:10.480Z,99842.46
2022-09-12T01:39:51.354Z,99836.69
2022-09-12T01:42:28.550Z,99842.19
2022-09-12T01:45:06.830Z,99841.27
2022-09-12T01:47:43.635Z,99843.23
2022-09-12T01:50:20.306Z,99846.59
2022-09-12T01:52:55.430Z,99843.94
2022-09-12T01:55:31.071Z,99853.20
2022-09-12T01:58:09.605Z,99853.36
2022-09-12T02:00:46.292Z,99858.70
2022-09-12T02:03:20.526Z,99857.05
2022-09-12T02:05:55.134Z,99855.90
2022-09-12T02:08:30.764Z,99850.05
2022-09-12T02:11:08.381Z,99852.50
2022-09-12T02:13:43.503Z,99848.92
2022-09-12T02:16:20.622Z,99852.77
2022-09-12T02:18:57.814Z,99853.57
2022-09-12T02:21:33.320Z,99854.36
2022-09-12T02:24:10.241Z,99857.70
2022-09-12T02:26:48.822Z,99856.33
2022-09-12T02:29:21.114Z,99858.30
2022-09-12T02:31:56.801Z,99861.85
2022-09-12T02:34:41.330Z,99859.98
2022-09-12T02:37:20.655Z,99859.77
2022-09-12T02:39:53.802Z,99859.41
2022-09-12T02:42:26.205Z,99855.15
2022-09-12T02:44:58.901Z,99854.72
2022-09-12T02:47:36.082Z,99857.73
2022-09-12T02:50:09.635Z,99853.98
2022-09-12T02:52:42.322Z,99860.37
2022-09-12T02:55:15.459Z,99854.39
2022-09-12T02:57:46.851Z,99867.36
2022-09-12T03:00:19.147Z,99863.67
2022-09-12T03:03:18.802Z,99865.27
2022-09-12T03:05:57.404Z,99862.42
2022-09-12T03:09:01.729Z,99864.39
2022-09-12T03:11:57.165Z,99870.45
2022-09-12T03:14:37.668Z,99871.43
2022-09-12T03:17:19.575Z,99875.02
2022-09-12T03:20:00.284Z,99876.59
2022-09-12T03:22:40.297Z,99879.00
2022-09-12T03:25:17.831Z,99879.98
2022-09-12T03:27:58.701Z,99878.52
2022-09-12T03:30:33.989Z,99876.27
2022-09-12T03:33:05.420Z,99879.83
2022-09-12T03:35:36.757Z,99883.95
2022-09-12T03:38:08.511Z,99885.08
2022-09-12T03:40:40.519Z,99889.52
2022-09-12T03:43:12.824Z,99889.41
2022-09-12T03:45:44.333Z,99891.37
2022-09-12T03:48:15.662Z,99891.36
2022-09-12T03:50:46.872Z,99897.73
2022-09-12T03:53:18.543Z,99896.25
2022-09-12T03:55:49.903Z,99894.09
2022-09-12T03:58:21.323Z,99897.14
2022-09-12T04:00:53.147Z,99898.14
2022-09-12T04:03:24.902Z,99897.36
2022-09-12T04:05:59.028Z,99897.77
2022-09-12T04:08:30.395Z,99899.45
2022-09-12T04:11:07.979Z,99903.84
2022-09-12T04:13:40.252Z,99899.02
2022-09-12T04:16:13.363Z,99902.46
2022-09-12T04:18:46.223Z,99905.54
2022-09-12T04:21:19.680Z,99907.91
2022-09-12T04:23:51.327Z,99910.98
2022-09-12T04:26:23.793Z,99911.55
2022-09-12T04:28:57.956Z,99912.02
2022-09-12T04:31:30.552Z,99912.71
2022-09-12T04:34:02.877Z,99915.61
2022-09-12T04:36:35.080Z,99910.83
2022-09-12T04:39:08.078Z,99913.16
2022-09-12T04:41:41.500Z,99913.27
2022-09-12T04:44:15.906Z,99913.58
2022-09-12T04:46:49.129Z,99912.82
2022-09-12T04:49:20.806Z,99909.55
2022-09-12T04:51:55.142Z,99912.10
2022-09-12T04:54:27.362Z,99914.88
2022-09-12T04:56:59.909Z,99917.05
2022-09-12T04:59:31.303Z,99916.25
2022-09-12T05:02:02.946Z,99918.09
2022-09-12T05:04:35.216Z,99921.59
2022-09-12T05:07:07.293Z,99923.15
2022-09-12T05:09:39.313Z,99921.63
2022-09-12T05:12:10.922Z,99933.39
2022-09-12T05:14:42.319Z,99932.42
2022-09-12T05:17:13.804Z,99932.07
2022-09-12T05:19:45.292Z,99932.21
2022-09-12T05:22:16.581Z,99940.89
2022-09-12T05:24:50.732Z,99934.58
2022-09-12T05:27:22.197Z,99932.58
2022-09-12T05:29:53.765Z,99936.20
2022-09-12T05:32:25.197Z,99934.80
2022-09-12T05:34:56.572Z,99942.11
2022-09-12T05:37:29.122Z,99937.39
2022-09-12T05:40:00.632Z,99937.59
2022-09-12T05:42:34.501Z,99935.04
2022-09-12T05:45:06.594Z,99933.42
2022-09-12T05:47:38.040Z,99934.45
2022-09-12T05:50:12.695Z,99936.05
2022-09-12T05:52:42.514Z,99937.17
2022-09-12T05:55:15.457Z,99935.01
2022-09-12T05:57:48.859Z,99943.21
2022-09-12T06:00:22.287Z,99944.94
2022-09-12T06:02:58.245Z,99945.03
2022-09-12T06:05:29.800Z,99947.64
2022-09-12T06:08:01.193Z,99948.04
2022-09-12T06:10:32.596Z,99942.52
2022-09-12T06:13:04.628Z,99940.04
2022-09-12T06:15:36.407Z,99937.09
2022-09-12T06:18:08.085Z,99945.66
2022-09-12T06:20:40.560Z,99942.02
2022-09-12T06:23:12.063Z,99942.42
2022-09-12T06:25:50.506Z,99944.38
2022-09-12T06:28:23.383Z,99950.46
2022-09-12T06:30:55.268Z,99952.03
2022-09-12T06:33:27.319Z,99954.16
2022-09-12T06:36:03.845Z,99955.15
2022-09-12T06:38:35.997Z,99958.17
2022-09-12T06:41:09.637Z,99959.91
2022-09-12T06:43:41.770Z,99962.86
2022-09-12T06:46:13.908Z,99964.35
2022-09-12T06:48:47.245Z,99964.20
2022-09-12T06:51:20.344Z,99965.70
2022-09-12T06:53:52.935Z,99968.48
2022-09-12T06:56:26.755Z,99963.13
2022-09-12T06:59:00.490Z,99971.35
2022-09-12T07:01:33.394Z,99974.34
2022-09-12T07:04:06.081Z,99976.33
2022-09-12T07:06:42.447Z,99979.00
2022-09-12T07:09:16.652Z,99978.20
2022-09-12T07:11:49.084Z,99976.27
2022-09-12T07:14:20.579Z,99975.54
2022-09-12T07:16:52.015Z,99975.79
2022-09-12T07:19:24.968Z,99977.97
2022-09-12T07:21:58.819Z,99979.38
2022-09-12T07:24:30.530Z,99981.52
2022-09-12T07:27:02.077Z,99978.89
2022-09-12T07:29:36.968Z,99983.91
2022-09-12T07:32:10.158Z,99979.75
2022-09-12T07:34:41.727Z,99980.70
2022-09-12T07:37:12.989Z,99986.70
2022-09-12T07:39:44.466Z,99987.36
2022-09-12T07:42:15.965Z,99988.22
2022-09-12T07:44:47.379Z,99991.27
2022-09-12T07:47:19.617Z,99992.40
2022-09-12T07:49:51.121Z,99992.73
2022-09-12T07:52:22.676Z,99995.95
2022-09-12T07:54:54.421Z,100000.56
2022-09-12T07:57:27.181Z,99998.68
2022-09-12T08:00:36.152Z,99999.73
2022-09-12T08:03:07.673Z,100001.98
2022-09-12T08:05:39.168Z,100003.51
2022-09-12T08:08:10.792Z,100004.08
2022-09-12T08:10:42.356Z,100002.59
2022-09-12T08:13:13.816Z,100000.46
2022-09-12T08:15:45.083Z,100005.46
2022-09-12T08:18:16.462Z,100006.05
2022-09-12T08:20:48.019Z,100007.09
2022-09-12T08:23:23.724Z,100006.61
2022-09-12T08:25:57.015Z,100007.23
2022-09-12T08:28:29.078Z,100000.27
2022-09-12T08:31:04.307Z,100002.99
2022-09-12T08:33:36.459Z,100005.95
2022-09-12T08:36:14.455Z,100002.09
2022-09-12T08:38:47.853Z,100001.70
2022-09-12T08:41:28.712Z,100003.05
2022-09-12T08:44:19.565Z,100000.98
2022-09-12T08:47:07.147Z,99996.49
2022-09-12T08:49:47.149Z,100002.49
2022-09-12T08:52:23.442Z,99999.93
2022-09-12T08:54:56.725Z,100002.26
2022-09-12T08:57:28.502Z,100001.81
2022-09-12T09:00:00.938Z,100000.78
2022-09-12T09:06:41.168Z,100005.36
2022-09-12T09:09:32.183Z,100004.38
2022-09-12T09:12:22.904Z,99997.35
2022-09-12T09:15:19.335Z,100002.30
2022-09-12T09:18:00.507Z,100007.29
2022-09-12T09:20:46.002Z,100010.91
2022-09-12T09:23:36.067Z,100008.85
2022-09-12T09:29:43.080Z,100015.23
2022-09-12T09:32:19.953Z,100017.58
2022-09-12T09:34:53.041Z,100014.66
2022-09-12T09:37:33.142Z,100015.85
2022-09-12T09:40:19.365Z,100023.56
2022-09-12T09:42:58.290Z,100024.91
2022-09-12T09:45:30.939Z,100024.30
2022-09-12T09:48:12.757Z,100024.48
2022-09-12T09:50:44.577Z,100027.55
2022-09-12T09:53:28.069Z,100025.34
2022-09-12T09:56:02.059Z,100023.88
2022-09-12T09:58:35.227Z,100024.45
2022-09-12T10:01:13.930Z,100026.98
2022-09-12T10:03:51.898Z,100029.44
2022-09-12T10:06:32.631Z,100033.36
2022-09-12T10:09:22.432Z,100033.42
2022-09-12T10:11:56.192Z,100035.23
2022-09-12T10:14:38.069Z,100032.58
2022-09-12T10:17:34.509Z,100031.11
2022-09-12T10:20:26.901Z,100034.28
2022-09-12T10:22:58.601Z,100036.39
2022-09-12T10:25:30.383Z,100036.86
2022-09-12T10:28:03.424Z,100038.98
2022-09-12T10:30:35.315Z,100039.25
2022-09-12T10:33:13.269Z,100039.65
2022-09-12T10:35:50.246Z,100042.82
2022-09-12T10:38:28.344Z,100042.66
2022-09-12T10:41:03.877Z,100041.79
2022-09-12T10:43:40.359Z,100047.86
2022-09-12T10:46:32.910Z,100046.30
2022-09-12T10:49:25.993Z,100043.52
2022-09-12T10:52:22.171Z,100041.92
2022-09-12T10:54:53.743Z,100042.10
2022-09-12T10:57:53.039Z,100040.62
2022-09-12T11:00:28.208Z,100043.45
2022-09-12T11:03:17.647Z,100042.92
2022-09-12T11:05:56.934Z,100044.39
2022-09-12T11:08:45.414Z,100041.15
2022-09-12T11:11:35.014Z,100042.81
2022-09-12T11:14:25.027Z,100046.86
2022-09-12T11:17:10.624Z,100048.48
2022-09-12T11:20:05.452Z,100048.23
2022-09-12T11:22:51.212Z,100048.19
2022-09-12T11:25:35.464Z,100047.43
2022-09-12T11:28:27.381Z,100044.95
2022-09-12T11:31:16.410Z,100044.94
2022-09-12T11:33:49.426Z,100042.42
2022-09-12T11:36:33.188Z,100045.30
2022-09-12T11:39:14.834Z,100045.23
2022-09-12T11:41:51.526Z,100044.43
2022-09-12T11:44:28.819Z,100043.48
2022-09-12T11:47:02.808Z,100045.01
2022-09-12T11:49:40.180Z,100042.93
2022-09-12T11:52:17.629Z,100043.59
2022-09-12T11:54:54.033Z,100043.42
2022-09-12T11:57:32.673Z,100041.89
2022-09-12T12:00:09.139Z,100040.65
2022-09-12T12:02:49.881Z,100040.93
2022-09-12T12:05:25.937Z,100043.17
2022-09-12T12:07:59.313Z,100047.66
2022-09-12T12:10:37.452Z,100049.34
2022-09-12T12:13:20.697Z,100050.94
2022-09-12T12:15:57.808Z,100046.08
2022-09-12T12:18:31.372Z,100047.98
2022-09-12T12:21:33.996Z,100048.32
2022-09-12T12:24:17.343Z,100050.14
2022-09-12T12:27:03.495Z,100047.25
2022-09-12T12:29:44.279Z,100048.50
2022-09-12T12:32:26.911Z,100047.23
2022-09-12T12:35:41.026Z,100046.80
2022-09-12T12:38:32.868Z,100044.03
2022-09-12T12:41:41.119Z,100049.84
2022-09-12T12:44:54.150Z,100045.53
2022-09-12T12:47:28.402Z,100046.44
2022-09-12T12:50:03.065Z,100042.21
2022-09-12T12:52:49.272Z,100040.23
2022-09-12T12:55:26.718Z,100045.11
2022-09-12T12:57:59.619Z,100045.83
2022-09-12T13:00:39.644Z,100043.84
2022-09-12T13:03:24.446Z,100051.36
2022-09-12T13:06:01.405Z,100050.16
2022-09-12T13:08:35.286Z,100042.59
2022-09-12T13:11:13.586Z,100047.08
2022-09-12T13:13:51.981Z,100043.52
2022-09-12T13:16:36.649Z,100040.20
2022-09-12T13:19:18.003Z,100038.10
2022-09-12T13:22:02.095Z,100032.53
2022-09-12T13:24:33.518Z,100031.33
2022-09-12T13:27:17.591Z,100037.41
2022-09-12T13:29:51.298Z,100041.58
2022-09-12T13:32:23.119Z,100044.27
2022-09-12T13:35:12.108Z,100045.64
2022-09-12T13:37:51.529Z,100044.39
2022-09-12T13:40:34.717Z,100044.21
2022-09-12T13:43:26.096Z,100044.05
2022-09-12T13:45:57.630Z,100042.39
2022-09-12T13:48:29.333Z,100044.00
2022-09-12T13:51:02.651Z,100045.73
2022-09-12T13:53:42.556Z,100041.77
2022-09-12T13:56:19.677Z,100046.30
2022-09-12T13:58:59.159Z,100039.02
2022-09-12T14:01:42.587Z,100040.25
2022-09-12T14:04:37.374Z,100038.59
2022-09-12T14:07:15.625Z,100040.08
2022-09-12T14:09:54.160Z,100046.98
2022-09-12T14:12:31.321Z,100042.52
2022-09-12T14:15:03.358Z,100040.16
2022-09-12T14:17:39.908Z,100040.13
2022-09-12T14:20:18.841Z,100038.23
2022-09-12T14:22:51.293Z,100038.52
2022-09-12T14:25:25.457Z,100037.60
2022-09-12T14:27:58.921Z,100043.66
2022-09-12T14:30:32.302Z,100037.67
2022-09-12T14:33:18.309Z,100041.38
2022-09-12T14:35:51.670Z,100042.88
2022-09-12T14:38:33.385Z,100042.67
2022-09-12T14:41:08.439Z,100040.46
2022-09-12T14:43:42.632Z,100040.31
2022-09-12T14:46:24.166Z,100042.66
2022-09-12T14:49:00.868Z,100040.67
2022-09-12T14:51:38.179Z,100043.63
2022-09-12T14:54:36.453Z,100048.17
2022-09-12T14:57:29.151Z,100045.73
2022-09-12T15:00:11.623Z,100042.35
2022-09-12T15:02:44.807Z,100041.50
2022-09-12T15:05:22.205Z,100044.64
2022-09-12T15:07:59.582Z,100043.86
2022-09-12T15:10:33.698Z,100039.73
2022-09-12T15:13:26.109Z,100045.36
2022-09-12T15:15:59.446Z,100042.48
2022-09-12T15:18:31.556Z,100045.44
2022-09-12T15:21:06.393Z,100046.96
2022-09-12T15:23:42.040Z,100049.91
2022-09-12T15:26:17.609Z,100044.21
2022-09-12T15:28:49.588Z,100044.20
2022-09-12T15:31:26.928Z,100042.48
2022-09-12T15:33:59.715Z,100046.61
2022-09-12T15:36:32.148Z,100048.20
2022-09-12T15:39:03.772Z,100047.61
2022-09-12T15:41:37.352Z,100046.63
2022-09-12T15:44:12.592Z,100046.16
2022-09-12T15:46:44.233Z,100047.61
2022-09-12T15:49:15.911Z,100042.25
2022-09-12T15:51:47.423Z,100044.79
2022-09-12T15:54:21.198Z,100044.44
2022-09-12T15:56:53.136Z,100047.76
2022-09-12T15:59:24.647Z,100042.34
2022-09-12T16:01:56.087Z,100042.04
2022-09-12T16:04:30.713Z,100043.27
2022-09-12T16:07:02.148Z,100043.81
2022-09-12T16:09:34.550Z,100045.80
2022-09-12T16:12:06.125Z,100045.02
2022-09-12T16:14:37.637Z,100046.45
2022-09-12T16:17:09.529Z,100044.17
2022-09-12T16:19:41.146Z,100045.33
2022-09-12T16:22:12.983Z,100049.21
2022-09-12T16:24:44.819Z,100049.73
2022-09-12T16:27:18.021Z,100050.13
2022-09-12T16:29:49.665Z,100049.75
2022-09-12T16:32:21.168Z,100048.96
2022-09-12T16:34:52.609Z,100050.14
2022-09-12T16:37:24.070Z,100045.47
2022-09-12T16:39:55.993Z,100046.15
2022-09-12T16:42:27.520Z,100047.59
2022-09-12T16:44:58.946Z,100051.26
2022-09-12T16:47:32.559Z,100055.68
2022-09-12T16:50:03.950Z,100057.07
2022-09-12T16:52:35.724Z,100058.27
2022-09-12T16:55:08.475Z,100055.81
2022-09-12T16:57:40.331Z,100057.59
2022-09-12T17:00:14.397Z,100057.40
2022-09-12T17:02:45.954Z,100056.65
2022-09-12T17:05:17.984Z,100052.52
2022-09-12T17:07:49.628Z,100060.27
2022-09-12T17:10:21.265Z,100059.52
2022-09-12T17:12:52.548Z,100055.20
2022-09-12T17:15:23.929Z,100053.83
2022-09-12T17:17:55.328Z,100053.35
2022-09-12T17:20:26.870Z,100053.98
2022-09-12T17:22:59.094Z,100054.40
2022-09-12T17:25:30.733Z,100057.08
2022-09-12T17:28:05.475Z,100062.70
2022-09-12T17:30:39.425Z,100057.89
2022-09-12T17:33:11.616Z,100059.29
2022-09-12T17:35:43.755Z,100064.98
2022-09-12T17:38:19.366Z,100066.92
2022-09-12T17:40:59.376Z,100069.36
2022-09-12T17:43:32.370Z,100067.34
2022-09-12T17:46:04.053Z,100066.38
2022-09-12T17:48:35.596Z,100068.96
2022-09-12T17:51:13.788Z,100071.47
2022-09-12T17:53:45.798Z,100073.73
2022-09-12T17:56:17.603Z,100076.01
2022-09-12T17:58:50.252Z,100072.27
2022-09-12T18:01:39.493Z,100074.85
2022-09-12T18:04:11.843Z,100080.13
2022-09-12T18:06:48.875Z,100077.34
2022-09-12T18:09:23.263Z,100080.46
2022-09-12T18:11:55.933Z,100080.38
2022-09-12T18:14:29.799Z,100081.79
2022-09-12T18:17:01.950Z,100076.13
2022-09-12T18:19:34.512Z,100078.50
2022-09-12T18:22:07.705Z,100081.86
2022-09-12T18:24:40.476Z,100082.69
2022-09-12T18:27:12.524Z,100085.60
2022-09-12T18:29:55.144Z,100084.34
2022-09-12T18:32:36.098Z,100089.40
2022-09-12T18:35:09.222Z,100088.90
2022-09-12T18:37:41.572Z,100088.45
2022-09-12T18:40:14.393Z,100084.49
2022-09-12T18:42:46.627Z,100085.80
2022-09-12T18:45:18.522Z,100086.98
2022-09-12T18:47:50.334Z,100088.96
2022-09-12T18:50:23.869Z,100087.21
2022-09-12T18:52:59.777Z,100083.27
2022-09-12T18:55:32.441Z,100079.60
2022-09-12T18:58:04.429Z,100082.55
2022-09-12T19:00:37.030Z,100082.23
2022-09-12T19:03:09.115Z,100080.81
2022-09-12T19:05:41.809Z,100080.62
2022-09-12T19:08:13.780Z,100078.46
2022-09-12T19:10:45.754Z,100079.84
2022-09-12T19:13:18.535Z,100080.06
2022-09-12T19:15:50.736Z,100083.34
2022-09-12T19:18:22.511Z,100081.83
2022-09-12T19:20:57.192Z,100082.06
2022-09-12T19:23:29.421Z,100081.75
2022-09-12T19:26:04.566Z,100084.95
2022-09-12T19:28:36.990Z,100078.56
2022-09-12T19:31:11.166Z,100080.98
2022-09-12T19:33:45.230Z,100083.55
2022-09-12T19:39:12.458Z,100082.31
2022-09-12T19:41:44.513Z,100082.30
2022-09-12T19:44:16.419Z,100085.77
2022-09-12T19:46:48.174Z,100077.44
2022-09-12T19:49:19.720Z,100081.11
2022-09-12T19:51:51.274Z,100080.05
2022-09-12T19:54:23.023Z,100078.64
2022-09-12T19:56:54.807Z,100075.53
2022-09-12T19:59:26.699Z,100074.12
2022-09-12T20:01:58.412Z,100075.63
2022-09-12T20:04:30.181Z,100070.80
2022-09-12T20:07:01.955Z,100073.31
2022-09-12T20:09:35.764Z,100070.73
2022-09-12T20:12:07.934Z,100062.98
2022-09-12T20:14:39.240Z,100063.45
2022-09-12T20:17:11.053Z,100061.16
2022-09-12T20:19:42.698Z,100056.58
2022-09-12T20:22:14.337Z,100056.37
2022-09-12T20:24:46.072Z,100056.80
2022-09-12T20:27:17.681Z,100058.67
2022-09-12T20:29:49.310Z,100060.71
2022-09-12T20:32:20.846Z,100057.95
2022-09-12T20:34:52.395Z,100065.06
2022-09-12T20:37:24.359Z,100063.27
2022-09-12T20:39:57.579Z,100063.50
2022-09-12T20:42:29.956Z,100060.65
2022-09-12T20:45:01.408Z,100060.14
2022-09-12T20:47:32.890Z,100059.27
2022-09-12T20:50:04.518Z,100058.14
2022-09-12T20:52:36.094Z,100059.66
2022-09-12T20:55:08.591Z,100058.79
2022-09-12T20:57:39.993Z,100054.94
2022-09-12T21:00:14.334Z,100058.73
2022-09-12T21:02:45.953Z,100054.61
2022-09-12T21:05:17.760Z,100056.83
2022-09-12T21:07:49.191Z,100062.75
2022-09-12T21:10:20.749Z,100057.32
2022-09-12T21:12:53.825Z,100062.00
2022-09-12T21:15:25.267Z,100061.58
2022-09-12T21:17:57.005Z,100067.37
2022-09-12T21:20:28.366Z,100068.54
2022-09-12T21:23:00.108Z,100068.37
2022-09-12T21:25:32.786Z,100070.84
2022-09-12T21:28:04.702Z,100067.70
2022-09-12T21:30:36.102Z,100063.74
2022-09-12T21:33:07.878Z,100058.41
2022-09-12T21:35:39.325Z,100058.36
2022-09-12T21:38:10.795Z,100054.36
2022-09-12T21:40:42.166Z,100054.77
2022-09-12T21:43:14.095Z,100049.47
2022-09-12T21:45:45.799Z,100047.89
2022-09-12T21:48:17.293Z,100043.65
2022-09-12T21:50:53.373Z,100042.76
2022-09-12T21:53:24.720Z,100041.73
2022-09-12T21:55:56.181Z,100036.48
2022-09-12T21:58:30.800Z,100042.37
2022-09-12T22:01:03.644Z,100042.38
2022-09-12T22:03:35.584Z,100043.67
2022-09-12T22:06:08.841Z,100042.98
2022-09-12T22:08:40.712Z,100046.19
2022-09-12T22:11:13.428Z,100046.17
2022-09-12T22:13:45.517Z,100044.63
2022-09-12T22:16:18.211Z,100047.23
2022-09-12T22:18:50.992Z,100046.05
2022-09-12T22:21:24.590Z,100044.98
2022-09-12T22:24:13.301Z,100047.06
2022-09-12T22:26:46.438Z,100039.86
2022-09-12T22:29:19.357Z,100038.68
2022-09-12T22:31:51.008Z,100033.04
2022-09-12T22:34:22.573Z,100030.61
2022-09-12T22:36:53.926Z,100028.14
2022-09-12T22:39:25.819Z,100027.39
2022-09-12T22:41:57.202Z,100031.56
2022-09-12T22:44:28.511Z,100029.52
2022-09-12T22:47:00.756Z,100029.09
2022-09-12T22:49:32.122Z,100026.85
2022-09-12T22:52:04.121Z,100027.64
2022-09-12T22:54:35.554Z,100029.81
2022-09-12T22:57:07.274Z,100032.55
2022-09-12T22:59:39.278Z,100034.19
2022-09-12T23:02:10.626Z,100033.13
2022-09-12T23:04:41.972Z,100036.70
2022-09-12T23:07:13.359Z,100037.29
2022-09-12T23:09:46.371Z,100039.85
2022-09-12T23:12:17.627Z,100035.73
2022-09-12T23:14:49.132Z,100034.06
2022-09-12T23:17:20.536Z,100030.92
2022-09-12T23:19:52.606Z,100033.49
2022-09-12T23:22:24.021Z,100028.80
2022-09-12T23:24:55.382Z,100031.23
2022-09-12T23:27:29.503Z,100024.32
2022-09-12T23:30:00.870Z,100015.84
2022-09-12T23:32:33.572Z,100014.65
2022-09-12T23:35:05.665Z,100011.52
2022-09-12T23:37:37.001Z,100012.98
2022-09-12T23:40:11.411Z,100013.92
2022-09-12T23:42:42.854Z,100012.21
2022-09-12T23:45:14.605Z,100011.87
2022-09-12T23:47:46.020Z,100016.58
2022-09-12T23:50:17.516Z,100022.98
2022-09-12T23:52:48.959Z,100024.42
2022-09-12T23:55:20.479Z,100024.87
2022-09-12T23:57:52.044Z,100028.10
